Combe Martin, United Kingdom
Current Conditions -  °F | °C
As of 10:50 PM on Friday 31 Oct 2014 (Local Time) from EGDX Reporting Station
Rain Showers Rain Showers  
Wind Chill: 59°   Ceiling: 2100
Heat Index: 59°   Visibility: 6mi
Dew Point: 57°   Wind: 13mph
Humidity: 94%   Direction: 240°WSW
Pressure: 29.85"   Gusts: NA
Location:  51.2°N, 4.02°W
Report Text: EGDX 312250Z AUTO 24011KT 9999 SHRA BKN021/// BKN050/// 15/14 Q1011
Loading
Personal Weather Stations






























Interactive Weather Map
Tropical Storm Tracking
New forecast layout! Learn more

10-Day Weather Forecast

Advertisements
Track Severe Weather on mobile